Terminal Aerodrome Forecast
Issued by NWS

Home | Current Version | Previous Version | Text Only | Print | Product List | Glossary On
Versions: 1 2 3 4 5 6 7 8 9 10 11 12 13 14 15
000
FTUS44 KEPZ 052331
TAFLRU
TAF
KLRU 052331Z 0600/0624 27010KT P6SM SCT080 SCT120
     FM060600 29007KT P6SM FEW070 SCT120
     FM061800 29008KT P6SM SCT070
     FM062100 30010KT P6SM VCTS SCT080CB BKN250=

USA.gov is the U.S. government's official web portal to all federal, state and local government web resources and services.